TAF KBRD
KBRD 090529Z 0906/1006 15010G20KT P6SM OVC070 WS016/17045KT FM091300 18007G16KT P6SM -SN OVC060 FM091900 24006KT P6SM SCT008 BKN025 FM100000 30009G15KT P6SM SCT025=
METAR KBRD
KBRD 090953Z AUTO 15009G20KT 10SM OVC085 M03/M10 A2955 RMK AO2 SLP026 T10331100 TSNO ?
KBRD 090853Z AUTO 14011G18KT 10SM BKN090 OVC110 M04/M11 A2957 RMK AO2 SLP034 T10391106 58033 TSNO ?
KBRD 090753Z AUTO 14010G17KT 10SM OVC065 M04/M11 A2961 RMK AO2 SLP046 T10441106 TSNO ?
KBRD 090653Z AUTO 15009KT 10SM OVC090 M05/M11 A2965 RMK AO2 SLP061 T10501111 TSNO ?
KBRD 090553Z AUTO 15011G20KT 9SM OVC080 M06/M11 A2967 RMK AO2 SLP069 T10561111 11056 21078 410561144 58033 TSNO
WC KBRD
WS KBRD
WV KBRD